createdAt,value
2018-11-06T00:01:13.107Z,93.56
2018-11-06T00:03:46.750Z,93.42
2018-11-06T00:06:14.907Z,93.50
2018-11-06T00:08:43.054Z,93.20
2018-11-06T00:11:12.111Z,92.88
2018-11-06T00:13:40.270Z,93.35
2018-11-06T00:16:09.275Z,93.78
2018-11-06T00:18:37.425Z,93.88
2018-11-06T00:21:05.750Z,94.28
2018-11-06T00:23:33.870Z,93.76
2018-11-06T00:26:02.061Z,93.85
2018-11-06T00:28:30.219Z,93.64
2018-11-06T00:30:58.371Z,93.40
2018-11-06T00:33:26.539Z,93.36
2018-11-06T00:35:54.663Z,93.24
2018-11-06T00:38:22.861Z,93.08
2018-11-06T00:40:51.122Z,92.65
2018-11-06T00:43:19.334Z,92.34
2018-11-06T00:45:47.486Z,91.98
2018-11-06T00:48:15.654Z,91.61
2018-11-06T00:50:43.784Z,91.54
2018-11-06T00:53:11.997Z,91.24
2018-11-06T00:55:40.126Z,91.09
2018-11-06T00:58:08.266Z,90.85
2018-11-06T01:00:36.446Z,90.80
2018-11-06T01:03:04.658Z,91.06
2018-11-06T01:05:32.800Z,90.99
2018-11-06T01:08:01.079Z,90.80
2018-11-06T01:10:29.241Z,90.67
2018-11-06T01:12:57.569Z,90.04
2018-11-06T01:15:25.738Z,89.69
2018-11-06T01:17:53.890Z,89.35
2018-11-06T01:20:22.086Z,88.70
2018-11-06T01:22:50.237Z,87.93
2018-11-06T01:25:18.390Z,88.08
2018-11-06T01:27:46.621Z,88.18
2018-11-06T01:30:17.141Z,88.09
2018-11-06T01:32:46.563Z,88.88
2018-11-06T01:35:15.231Z,88.15
2018-11-06T01:37:44.022Z,88.29
2018-11-06T01:40:14.407Z,88.22
2018-11-06T01:42:43.226Z,88.08
2018-11-06T01:45:13.670Z,88.09
2018-11-06T01:47:42.033Z,88.00
2018-11-06T01:50:12.556Z,88.00
2018-11-06T01:52:41.286Z,88.35
2018-11-06T01:55:10.660Z,87.59
2018-11-06T01:57:38.814Z,87.99
2018-11-06T02:00:10.266Z,88.34
2018-11-06T02:02:38.406Z,90.10
2018-11-06T02:05:07.638Z,91.37
2018-11-06T02:07:35.804Z,91.60
2018-11-06T02:10:03.997Z,92.27
2018-11-06T02:12:32.146Z,92.13
2018-11-06T02:15:00.771Z,92.34
2018-11-06T02:17:28.913Z,92.16
2018-11-06T02:19:57.086Z,92.70
2018-11-06T02:22:25.226Z,92.57
2018-11-06T02:24:53.365Z,92.38
2018-11-06T02:27:21.491Z,92.29
2018-11-06T02:29:49.626Z,91.87
2018-11-06T02:32:18.726Z,91.74
2018-11-06T02:34:46.818Z,90.45
2018-11-06T02:37:14.957Z,89.70
2018-11-06T02:39:43.090Z,89.72
2018-11-06T02:42:11.781Z,89.06
2018-11-06T02:44:39.938Z,89.18
2018-11-06T02:47:08.330Z,88.70
2018-11-06T02:49:36.508Z,88.59
2018-11-06T02:52:04.708Z,88.41
2018-11-06T02:54:32.954Z,87.91
2018-11-06T02:57:01.111Z,87.55
2018-11-06T02:59:29.248Z,87.38
2018-11-06T03:01:57.435Z,88.30
2018-11-06T03:04:25.581Z,88.22
2018-11-06T03:06:53.710Z,87.52
2018-11-06T03:09:21.879Z,87.15
2018-11-06T03:11:50.014Z,88.02
2018-11-06T03:14:18.166Z,88.03
2018-11-06T03:16:47.301Z,87.45
2018-11-06T03:19:15.571Z,87.23
2018-11-06T03:21:43.738Z,87.59
2018-11-06T03:24:12.096Z,87.33
2018-11-06T03:26:40.236Z,88.04
2018-11-06T03:29:08.399Z,87.83
2018-11-06T03:31:36.537Z,88.75
2018-11-06T03:34:04.702Z,89.65
2018-11-06T03:36:32.861Z,89.69
2018-11-06T03:39:01.039Z,90.91
2018-11-06T03:41:29.190Z,91.87
2018-11-06T03:43:57.361Z,92.96
2018-11-06T03:46:25.487Z,92.93
2018-11-06T03:48:53.712Z,93.07
2018-11-06T03:51:21.912Z,92.57
2018-11-06T03:53:50.069Z,92.75
2018-11-06T03:56:18.226Z,93.36
2018-11-06T03:58:46.350Z,93.59
2018-11-06T04:01:14.572Z,92.78
2018-11-06T04:03:43.851Z,92.55
2018-11-06T04:06:12.078Z,91.95
2018-11-06T04:08:40.246Z,91.84
2018-11-06T04:11:08.710Z,91.61
2018-11-06T04:13:36.847Z,91.78
2018-11-06T04:16:05.001Z,91.42
2018-11-06T04:18:34.027Z,91.04
2018-11-06T04:21:02.167Z,91.45
2018-11-06T04:23:31.083Z,93.10
2018-11-06T04:25:59.466Z,93.24
2018-11-06T04:28:27.735Z,92.90
2018-11-06T04:30:55.886Z,92.24
2018-11-06T04:33:24.106Z,92.92
2018-11-06T04:35:52.274Z,92.73
2018-11-06T04:38:20.408Z,92.34
2018-11-06T04:40:48.549Z,92.76
2018-11-06T04:43:16.706Z,93.07
2018-11-06T04:45:44.840Z,92.62
2018-11-06T04:48:13.031Z,93.38
2018-11-06T04:50:41.182Z,93.15
2018-11-06T04:53:09.324Z,93.06
2018-11-06T04:55:37.472Z,93.22
2018-11-06T04:58:05.595Z,92.93
2018-11-06T05:00:33.730Z,93.03
2018-11-06T05:03:01.893Z,92.71
2018-11-06T05:05:30.067Z,92.66
2018-11-06T05:07:58.219Z,92.29
2018-11-06T05:10:26.609Z,92.14
2018-11-06T05:12:54.722Z,93.05
2018-11-06T05:15:22.880Z,92.07
2018-11-06T05:17:51.022Z,92.03
2018-11-06T05:20:19.260Z,92.48
2018-11-06T05:22:47.857Z,92.49
2018-11-06T05:25:16.268Z,92.58
2018-11-06T05:27:44.415Z,92.24
2018-11-06T05:30:12.898Z,91.80
2018-11-06T05:32:42.421Z,91.14
2018-11-06T05:35:11.177Z,90.80
2018-11-06T05:37:39.557Z,90.88
2018-11-06T05:40:19.101Z,92.24
2018-11-06T05:42:47.242Z,92.26
2018-11-06T05:45:15.401Z,92.86
2018-11-06T05:47:43.542Z,92.30
2018-11-06T05:50:11.681Z,91.87
2018-11-06T05:52:39.822Z,92.04
2018-11-06T05:55:08.046Z,91.49
2018-11-06T05:57:36.359Z,91.25
2018-11-06T06:00:05.466Z,90.92
2018-11-06T06:02:33.616Z,91.99
2018-11-06T06:05:01.783Z,91.47
2018-11-06T06:07:29.979Z,91.66
2018-11-06T06:09:58.215Z,91.95
2018-11-06T06:12:26.366Z,91.79
2018-11-06T06:14:54.518Z,91.39
2018-11-06T06:17:22.703Z,91.32
2018-11-06T06:19:50.827Z,91.70
2018-11-06T06:22:19.114Z,91.93
2018-11-06T06:24:47.222Z,91.91
2018-11-06T06:27:15.371Z,92.29
2018-11-06T06:29:43.526Z,92.65
2018-11-06T06:32:11.650Z,92.08
2018-11-06T06:34:40.640Z,92.04
2018-11-06T06:37:08.727Z,91.96
2018-11-06T06:39:37.101Z,92.95
2018-11-06T06:42:05.715Z,93.28
2018-11-06T06:44:33.883Z,93.71
2018-11-06T06:47:03.053Z,93.16
2018-11-06T06:49:31.204Z,93.25
2018-11-06T06:51:59.411Z,92.92
2018-11-06T06:54:27.669Z,92.77
2018-11-06T06:56:55.815Z,91.95
2018-11-06T06:59:24.023Z,91.01
2018-11-06T07:01:52.210Z,90.75
2018-11-06T07:04:20.334Z,91.18
2018-11-06T07:06:49.822Z,90.82
2018-11-06T07:09:17.973Z,90.41
2018-11-06T07:11:46.426Z,90.66
2018-11-06T07:14:14.839Z,91.62
2018-11-06T07:16:43.547Z,91.70
2018-11-06T07:19:11.878Z,91.69
2018-11-06T07:21:40.050Z,91.59
2018-11-06T07:24:08.741Z,92.13
2018-11-06T07:26:36.886Z,91.43
2018-11-06T07:29:05.201Z,91.37
2018-11-06T07:31:33.348Z,91.65
2018-11-06T07:34:01.482Z,90.91
2018-11-06T07:36:29.637Z,90.19
2018-11-06T07:38:57.791Z,89.67
2018-11-06T07:41:25.944Z,89.65
2018-11-06T07:43:54.082Z,90.06
2018-11-06T07:46:22.288Z,89.58
2018-11-06T07:48:50.457Z,90.42
2018-11-06T07:51:18.626Z,91.00
2018-11-06T07:53:46.806Z,91.19
2018-11-06T07:56:15.004Z,91.26
2018-11-06T07:58:43.121Z,91.99
2018-11-06T08:01:11.646Z,90.75
2018-11-06T08:03:39.820Z,90.41
2018-11-06T08:06:07.993Z,91.37
2018-11-06T08:08:36.146Z,91.22
2018-11-06T08:11:04.316Z,90.68
2018-11-06T08:13:32.470Z,90.76
2018-11-06T08:16:00.602Z,91.19
2018-11-06T08:18:28.774Z,90.64
2018-11-06T08:20:56.864Z,90.54
2018-11-06T08:23:25.082Z,90.42
2018-11-06T08:25:54.058Z,89.50
2018-11-06T08:28:22.198Z,88.77
2018-11-06T08:30:50.500Z,89.39
2018-11-06T08:33:18.430Z,89.06
2018-11-06T08:35:46.549Z,88.64
2018-11-06T08:38:14.733Z,88.43
2018-11-06T08:40:42.841Z,87.96
2018-11-06T08:43:10.955Z,87.90
2018-11-06T08:45:39.077Z,87.74
2018-11-06T08:48:07.226Z,86.78
2018-11-06T08:50:35.298Z,86.32
2018-11-06T08:53:04.393Z,85.71
2018-11-06T08:55:32.661Z,85.13
2018-11-06T08:58:00.621Z,83.97
2018-11-06T09:00:28.751Z,84.86
2018-11-06T09:02:56.858Z,85.86
2018-11-06T09:05:25.033Z,85.93
2018-11-06T09:07:53.210Z,85.97
2018-11-06T09:10:21.941Z,88.37
2018-11-06T09:12:50.031Z,88.36
2018-11-06T09:15:18.182Z,88.62
2018-11-06T09:17:46.336Z,88.77
2018-11-06T09:20:15.622Z,87.87
2018-11-06T09:22:43.789Z,87.80
2018-11-06T09:25:13.199Z,87.30
2018-11-06T09:27:42.402Z,86.50
2018-11-06T09:30:12.842Z,86.69
2018-11-06T09:32:40.981Z,88.29
2018-11-06T09:35:10.227Z,87.32
2018-11-06T09:37:39.205Z,86.23
2018-11-06T09:40:08.853Z,86.44
2018-11-06T09:42:37.115Z,85.25
2018-11-06T09:45:05.348Z,85.55
2018-11-06T09:47:33.417Z,82.25
2018-11-06T09:50:01.530Z,81.50
2018-11-06T09:52:29.743Z,81.30
2018-11-06T09:54:57.850Z,80.73
2018-11-06T09:57:26.014Z,78.27
2018-11-06T09:59:54.126Z,78.87
2018-11-06T10:02:22.338Z,79.03
2018-11-06T10:04:50.457Z,77.69
2018-11-06T10:07:18.804Z,78.29
2018-11-06T10:09:46.666Z,78.81
2018-11-06T10:12:14.789Z,80.46
2018-11-06T10:14:42.901Z,81.66
2018-11-06T10:17:11.015Z,84.27
2018-11-06T10:19:39.160Z,83.20
2018-11-06T10:22:07.284Z,82.75
2018-11-06T10:24:35.409Z,82.69
2018-11-06T10:27:03.531Z,81.44
2018-11-06T10:29:32.548Z,81.89
2018-11-06T10:32:00.669Z,81.27
2018-11-06T10:34:28.790Z,80.29
2018-11-06T10:36:56.920Z,78.99
2018-11-06T10:39:25.012Z,77.73
2018-11-06T10:41:53.234Z,76.89
2018-11-06T10:44:21.346Z,77.33
2018-11-06T10:46:49.465Z,75.50
2018-11-06T10:49:17.594Z,75.31
2018-11-06T10:51:45.885Z,74.28
2018-11-06T10:54:13.948Z,73.95
2018-11-06T10:56:42.065Z,72.27
2018-11-06T10:59:10.189Z,72.38
2018-11-06T11:01:43.717Z,72.57
2018-11-06T11:04:23.804Z,71.82
2018-11-06T11:06:52.190Z,72.44
2018-11-06T11:09:20.297Z,73.37
2018-11-06T11:11:48.409Z,74.08
2018-11-06T11:14:16.522Z,75.02
2018-11-06T11:16:44.629Z,75.57
2018-11-06T11:19:12.731Z,76.07
2018-11-06T11:21:40.903Z,76.03
2018-11-06T11:24:08.996Z,76.14
2018-11-06T11:26:37.109Z,77.48
2018-11-06T11:29:05.427Z,77.93
2018-11-06T11:31:33.782Z,77.65
2018-11-06T11:34:01.889Z,76.21
2018-11-06T11:36:30.025Z,75.56
2018-11-06T11:38:58.421Z,77.31
2018-11-06T11:41:26.606Z,76.00
2018-11-06T11:43:55.002Z,76.69
2018-11-06T11:46:23.255Z,74.37
2018-11-06T11:48:51.528Z,73.21
2018-11-06T11:51:19.823Z,72.71
2018-11-06T11:53:47.925Z,74.14
2018-11-06T11:56:16.121Z,74.01
2018-11-06T11:58:47.001Z,73.05
2018-11-06T12:01:15.110Z,72.42
2018-11-06T12:03:43.202Z,72.95
2018-11-06T12:06:11.401Z,74.13
2018-11-06T12:08:39.513Z,73.02
2018-11-06T12:11:08.017Z,71.33
2018-11-06T12:13:36.202Z,71.23
2018-11-06T12:16:04.392Z,70.93
2018-11-06T12:18:32.523Z,70.98
2018-11-06T12:21:00.631Z,69.67
2018-11-06T12:23:28.740Z,69.04
2018-11-06T12:25:56.954Z,67.70
2018-11-06T12:28:25.063Z,66.63
2018-11-06T12:30:53.182Z,66.13
2018-11-06T12:33:21.706Z,66.06
2018-11-06T12:35:49.885Z,64.94
2018-11-06T12:38:18.010Z,64.94
2018-11-06T12:40:46.125Z,65.71
2018-11-06T12:43:14.287Z,66.32
2018-11-06T12:45:42.367Z,66.73
2018-11-06T12:48:10.541Z,66.44
2018-11-06T12:50:38.635Z,65.62
2018-11-06T12:53:06.782Z,64.59
2018-11-06T12:55:35.286Z,63.38
2018-11-06T12:58:03.402Z,62.81
2018-11-06T13:00:31.514Z,62.70
2018-11-06T13:03:00.105Z,62.84
2018-11-06T13:05:28.230Z,62.84
2018-11-06T13:07:56.337Z,62.81
2018-11-06T13:10:24.455Z,63.65
2018-11-06T13:12:52.573Z,63.18
2018-11-06T13:15:20.712Z,63.76
2018-11-06T13:17:48.822Z,63.55
2018-11-06T13:20:17.206Z,63.52
2018-11-06T13:22:45.811Z,63.63
2018-11-06T13:25:13.911Z,64.35
2018-11-06T13:27:42.462Z,65.01
2018-11-06T13:30:15.368Z,65.05
2018-11-06T13:32:45.357Z,66.04
2018-11-06T13:35:13.493Z,66.33
2018-11-06T13:37:41.841Z,65.82
2018-11-06T13:40:12.330Z,66.85
2018-11-06T13:42:40.519Z,67.40
2018-11-06T13:45:11.283Z,67.96
2018-11-06T13:47:39.262Z,69.49
2018-11-06T13:50:08.072Z,69.36
2018-11-06T13:52:36.482Z,68.29
2018-11-06T13:55:04.618Z,68.53
2018-11-06T13:57:32.742Z,68.43
2018-11-06T14:00:00.877Z,67.52
2018-11-06T14:02:29.029Z,67.69
2018-11-06T14:04:57.141Z,67.45
2018-11-06T14:07:25.242Z,65.82
2018-11-06T14:09:53.650Z,66.11
2018-11-06T14:12:21.757Z,65.52
2018-11-06T14:14:50.344Z,65.79
2018-11-06T14:17:18.432Z,65.54
2018-11-06T14:19:46.533Z,66.38
2018-11-06T14:22:14.661Z,67.01
2018-11-06T14:24:42.796Z,67.59
2018-11-06T14:27:10.998Z,67.86
2018-11-06T14:29:39.014Z,67.67
2018-11-06T14:32:07.260Z,68.06
2018-11-06T14:34:35.416Z,70.06
2018-11-06T14:37:03.529Z,69.33
2018-11-06T14:39:31.642Z,69.26
2018-11-06T14:41:59.771Z,69.74
2018-11-06T14:44:27.893Z,69.82
2018-11-06T14:46:56.069Z,71.04
2018-11-06T14:49:24.230Z,71.71
2018-11-06T14:51:52.294Z,67.59
2018-11-06T14:54:20.455Z,68.39
2018-11-06T14:56:48.603Z,67.99
2018-11-06T14:59:16.838Z,67.13
2018-11-06T15:02:05.161Z,68.25
2018-11-06T15:04:33.550Z,68.43
2018-11-06T15:07:01.670Z,68.66
2018-11-06T15:09:29.772Z,68.54
2018-11-06T15:11:57.892Z,68.92
2018-11-06T15:14:26.580Z,69.85
2018-11-06T15:16:54.677Z,70.77
2018-11-06T15:19:22.899Z,70.51
2018-11-06T15:21:51.038Z,69.78
2018-11-06T15:24:19.149Z,70.40
2018-11-06T15:26:47.248Z,71.52
2018-11-06T15:29:15.366Z,73.27
2018-11-06T15:31:43.491Z,72.89
2018-11-06T15:34:12.977Z,73.16
2018-11-06T15:36:41.130Z,72.93
2018-11-06T15:39:09.644Z,72.66
2018-11-06T15:41:38.645Z,72.92
2018-11-06T15:44:06.653Z,74.20
2018-11-06T15:46:35.083Z,75.43
2018-11-06T15:49:03.224Z,75.66
2018-11-06T15:51:31.525Z,77.49
2018-11-06T15:53:59.641Z,77.61
2018-11-06T15:56:27.889Z,78.39
2018-11-06T15:58:56.002Z,79.44
2018-11-06T16:01:25.539Z,79.02
2018-11-06T16:03:53.683Z,79.04
2018-11-06T16:06:21.929Z,78.63
2018-11-06T16:08:50.269Z,78.75
2018-11-06T16:11:18.400Z,80.51
2018-11-06T16:13:46.645Z,80.86
2018-11-06T16:16:14.758Z,82.28
2018-11-06T16:18:42.905Z,82.68
2018-11-06T16:21:11.018Z,82.41
2018-11-06T16:23:39.130Z,82.32
2018-11-06T16:26:07.272Z,82.54
2018-11-06T16:28:35.394Z,81.89
2018-11-06T16:31:03.490Z,81.04
2018-11-06T16:33:31.643Z,81.14
2018-11-06T16:36:00.362Z,81.52
2018-11-06T16:38:28.463Z,81.34
2018-11-06T16:40:56.619Z,81.35
2018-11-06T16:43:24.731Z,83.01
2018-11-06T16:45:52.838Z,82.14
2018-11-06T16:48:21.500Z,82.32
2018-11-06T16:50:49.569Z,81.72
2018-11-06T16:53:17.686Z,81.17
2018-11-06T16:55:45.820Z,81.37
2018-11-06T16:58:13.923Z,80.98
2018-11-06T17:00:42.130Z,82.67
2018-11-06T17:03:10.169Z,82.57
2018-11-06T17:05:38.385Z,82.60
2018-11-06T17:08:06.509Z,82.16
2018-11-06T17:10:34.679Z,82.52
2018-11-06T17:13:02.816Z,81.23
2018-11-06T17:15:30.938Z,81.96
2018-11-06T17:17:59.079Z,82.25
2018-11-06T17:20:27.202Z,82.25
2018-11-06T17:22:55.320Z,82.46
2018-11-06T17:25:24.094Z,82.76
2018-11-06T17:27:52.209Z,83.11
2018-11-06T17:30:20.502Z,83.76
2018-11-06T17:32:48.706Z,81.77
2018-11-06T17:35:17.999Z,84.06
2018-11-06T17:37:46.643Z,84.39
2018-11-06T17:40:16.946Z,84.01
2018-11-06T17:42:45.191Z,83.70
2018-11-06T17:45:21.443Z,84.96
2018-11-06T17:47:49.492Z,85.78
2018-11-06T17:50:17.902Z,84.83
2018-11-06T17:52:46.202Z,84.78
2018-11-06T17:55:16.048Z,84.46
2018-11-06T17:57:43.959Z,84.73
2018-11-06T18:00:18.530Z,83.30
2018-11-06T18:02:46.941Z,83.41
2018-11-06T18:05:15.821Z,83.98
2018-11-06T18:07:44.314Z,85.17
2018-11-06T18:10:13.919Z,85.04
2018-11-06T18:12:42.205Z,86.03
2018-11-06T18:15:10.368Z,85.84
2018-11-06T18:17:43.287Z,88.68
2018-11-06T18:20:12.607Z,88.05
2018-11-06T18:22:44.705Z,87.74
2018-11-06T18:25:16.258Z,86.55
2018-11-06T18:27:45.164Z,86.97
2018-11-06T18:30:15.446Z,86.40
2018-11-06T18:32:43.549Z,85.61
2018-11-06T18:35:15.941Z,85.53
2018-11-06T18:37:46.269Z,85.86
2018-11-06T18:40:17.746Z,84.34
2018-11-06T18:42:47.867Z,84.09
2018-11-06T18:45:17.156Z,84.41
2018-11-06T18:47:46.697Z,86.26
2018-11-06T18:50:16.050Z,87.02
2018-11-06T18:52:47.192Z,89.51
2018-11-06T18:55:17.354Z,91.40
2018-11-06T18:57:45.573Z,92.10
2018-11-06T19:00:17.113Z,89.77
2018-11-06T19:02:46.431Z,88.78
2018-11-06T19:05:15.195Z,88.53
2018-11-06T19:07:43.375Z,87.81
2018-11-06T19:10:13.193Z,87.54
2018-11-06T19:12:41.496Z,90.03
2018-11-06T19:15:13.114Z,91.04
2018-11-06T19:17:41.709Z,91.29
2018-11-06T19:20:10.586Z,91.45
2018-11-06T19:22:38.873Z,90.78
2018-11-06T19:25:08.114Z,87.97
2018-11-06T19:27:36.325Z,86.68
2018-11-06T19:30:05.967Z,85.98
2018-11-06T19:32:34.073Z,85.96
2018-11-06T19:35:02.184Z,87.96
2018-11-06T19:37:31.482Z,88.32
2018-11-06T19:39:59.601Z,88.17
2018-11-06T19:42:27.853Z,86.49
2018-11-06T19:44:56.029Z,86.43
2018-11-06T19:47:24.219Z,86.25
2018-11-06T19:49:52.611Z,87.96
2018-11-06T19:52:20.692Z,89.22
2018-11-06T19:54:48.801Z,89.16
2018-11-06T19:57:16.918Z,89.21
2018-11-06T19:59:45.125Z,88.59
2018-11-06T20:02:13.262Z,88.59
2018-11-06T20:04:41.387Z,89.13
2018-11-06T20:07:09.595Z,88.80
2018-11-06T20:09:37.713Z,88.67
2018-11-06T20:12:06.984Z,87.58
2018-11-06T20:14:35.058Z,87.52
2018-11-06T20:17:03.241Z,86.34
2018-11-06T20:19:31.405Z,87.38
2018-11-06T20:21:59.625Z,88.99
2018-11-06T20:24:27.733Z,90.16
2018-11-06T20:26:55.894Z,91.19
2018-11-06T20:29:24.000Z,90.73
2018-11-06T20:31:52.106Z,88.66
2018-11-06T20:34:20.286Z,86.87
2018-11-06T20:36:48.402Z,85.71
2018-11-06T20:39:16.526Z,85.46
2018-11-06T20:41:45.426Z,85.97
2018-11-06T20:44:13.539Z,86.26
2018-11-06T20:46:41.745Z,86.26
2018-11-06T20:49:09.997Z,86.78
2018-11-06T20:51:38.077Z,87.66
2018-11-06T20:54:06.265Z,87.92
2018-11-06T20:56:35.208Z,88.87
2018-11-06T20:59:03.314Z,92.35
2018-11-06T21:01:31.506Z,93.00
2018-11-06T21:03:59.742Z,92.56
2018-11-06T21:06:27.873Z,92.31
2018-11-06T21:08:56.029Z,90.14
2018-11-06T21:11:24.710Z,87.65
2018-11-06T21:13:52.894Z,86.99
2018-11-06T21:16:21.000Z,88.02
2018-11-06T21:18:49.214Z,86.28
2018-11-06T21:21:17.330Z,86.75
2018-11-06T21:23:45.434Z,87.33
2018-11-06T21:26:13.824Z,89.60
2018-11-06T21:28:41.715Z,89.85
2018-11-06T21:31:09.816Z,89.64
2018-11-06T21:33:37.965Z,89.01
2018-11-06T21:36:06.147Z,87.85
2018-11-06T21:38:34.310Z,87.12
2018-11-06T21:41:02.473Z,85.98
2018-11-06T21:43:30.646Z,86.02
2018-11-06T21:45:58.749Z,86.47
2018-11-06T21:48:26.933Z,87.36
2018-11-06T21:50:55.017Z,88.64
2018-11-06T21:53:23.149Z,89.24
2018-11-06T21:55:51.321Z,87.66
2018-11-06T21:58:19.508Z,86.92
2018-11-06T22:00:47.794Z,87.55
2018-11-06T22:03:15.835Z,86.03
2018-11-06T22:05:43.957Z,88.17
2018-11-06T22:08:12.117Z,90.06
2018-11-06T22:10:40.231Z,91.33
2018-11-06T22:13:08.468Z,91.66
2018-11-06T22:15:36.541Z,90.68
2018-11-06T22:18:04.697Z,89.88
2018-11-06T22:20:32.806Z,89.84
2018-11-06T22:23:00.941Z,89.62
2018-11-06T22:25:29.039Z,89.75
2018-11-06T22:27:57.161Z,90.36
2018-11-06T22:30:29.271Z,91.79
2018-11-06T22:32:58.994Z,91.34
2018-11-06T22:35:27.110Z,88.75
2018-11-06T22:37:59.737Z,88.76
2018-11-06T22:40:27.849Z,88.32
2018-11-06T22:42:56.041Z,88.59
2018-11-06T22:45:24.284Z,89.02
2018-11-06T22:47:52.383Z,89.00
2018-11-06T22:50:20.617Z,88.95
2018-11-06T22:52:49.293Z,89.48
2018-11-06T22:55:17.581Z,90.21
2018-11-06T22:57:46.525Z,91.54
2018-11-06T23:00:17.274Z,92.18
2018-11-06T23:02:45.663Z,92.73
2018-11-06T23:05:14.453Z,91.95
2018-11-06T23:07:48.106Z,91.35
2018-11-06T23:10:16.230Z,92.14
2018-11-06T23:12:44.358Z,92.27
2018-11-06T23:15:12.530Z,92.04
2018-11-06T23:17:40.704Z,92.66
2018-11-06T23:20:09.483Z,93.02
2018-11-06T23:22:37.541Z,92.96
2018-11-06T23:25:06.138Z,93.59
2018-11-06T23:27:34.194Z,92.98
2018-11-06T23:30:02.415Z,91.57
2018-11-06T23:32:30.542Z,90.94
2018-11-06T23:34:58.649Z,90.29
2018-11-06T23:37:26.780Z,90.28
2018-11-06T23:39:54.918Z,90.67
2018-11-06T23:42:23.025Z,90.49
2018-11-06T23:44:51.149Z,91.23
2018-11-06T23:47:19.820Z,92.83
2018-11-06T23:49:47.921Z,93.02
2018-11-06T23:52:16.022Z,93.07
2018-11-06T23:54:44.146Z,93.11
2018-11-06T23:57:12.342Z,92.04
2018-11-06T23:59:40.436Z,90.87
